Glastonbury, Connecticut
Current Conditions -  °F | °C
As of 1:53 PM on Thursday 23 Oct 2014 (Local Time) from KHFD Reporting Station
Overcast Overcast  
Wind Chill: 53°   Ceiling: 1400
Heat Index: 53°   Visibility: 10mi
Dew Point: 48°   Wind: 15mph
Humidity: 83%   Direction: 360°N
Pressure: 29.66"   Gusts: 23mph
Location:  41.71°N, 72.61°W
Report Text: KHFD 231753Z 36013G20KT 10SM OVC014 12/09 A2966 RMK AO2 RAB29E45 SLP042 P0000 60001 T01170089 10117 20100 56005
Loading
Personal Weather Stations






























Interactive Weather Map New forecast layout! Learn more

10-Day Weather Forecast

Advertisements
Track Severe Weather on mobile